sensor_id;sensor_type;location;lat;lon;timestamp;P1;durP1;ratioP1;P2;durP2;ratioP2
7247;SDS011;3665;51.034;13.642;2023-04-24T00:00:02;10.03;;;9.03;;
7247;SDS011;3665;51.034;13.642;2023-04-24T00:04:47;11.13;;;9.00;;
7247;SDS011;3665;51.034;13.642;2023-04-24T00:09:38;10.80;;;9.70;;
7247;SDS011;3665;51.034;13.642;2023-04-24T00:14:25;8.57;;;7.67;;
7247;SDS011;3665;51.034;13.642;2023-04-24T00:19:19;9.60;;;7.67;;
7247;SDS011;3665;51.034;13.642;2023-04-24T00:24:17;8.77;;;7.87;;
7247;SDS011;3665;51.034;13.642;2023-04-24T00:29:10;8.47;;;7.30;;
7247;SDS011;3665;51.034;13.642;2023-04-24T00:33:54;7.77;;;6.97;;
7247;SDS011;3665;51.034;13.642;2023-04-24T00:38:42;8.43;;;7.63;;
7247;SDS011;3665;51.034;13.642;2023-04-24T00:43:29;7.90;;;7.17;;
7247;SDS011;3665;51.034;13.642;2023-04-24T00:48:18;7.30;;;6.57;;
7247;SDS011;3665;51.034;13.642;2023-04-24T00:53:06;7.23;;;6.53;;
7247;SDS011;3665;51.034;13.642;2023-04-24T01:03:16;6.23;;;5.63;;
7247;SDS011;3665;51.034;13.642;2023-04-24T01:08:01;6.40;;;5.77;;
7247;SDS011;3665;51.034;13.642;2023-04-24T01:12:52;7.03;;;5.47;;
7247;SDS011;3665;51.034;13.642;2023-04-24T01:17:38;5.47;;;4.97;;
7247;SDS011;3665;51.034;13.642;2023-04-24T01:22:27;5.50;;;4.50;;
7247;SDS011;3665;51.034;13.642;2023-04-24T01:27:14;4.53;;;4.13;;
7247;SDS011;3665;51.034;13.642;2023-04-24T01:32:01;3.83;;;3.43;;
7247;SDS011;3665;51.034;13.642;2023-04-24T01:36:51;3.27;;;2.97;;
7247;SDS011;3665;51.034;13.642;2023-04-24T01:46:59;2.97;;;2.27;;
7247;SDS011;3665;51.034;13.642;2023-04-24T01:51:44;2.90;;;2.67;;
7247;SDS011;3665;51.034;13.642;2023-04-24T01:56:36;3.00;;;2.70;;
7247;SDS011;3665;51.034;13.642;2023-04-24T02:01:39;2.40;;;2.20;;
7247;SDS011;3665;51.034;13.642;2023-04-24T02:06:26;3.43;;;3.13;;
7247;SDS011;3665;51.034;13.642;2023-04-24T02:11:13;3.17;;;2.47;;
7247;SDS011;3665;51.034;13.642;2023-04-24T02:16:06;3.20;;;2.77;;
7247;SDS011;3665;51.034;13.642;2023-04-24T02:21:09;3.47;;;3.17;;
7247;SDS011;3665;51.034;13.642;2023-04-24T02:25:55;3.83;;;3.53;;
7247;SDS011;3665;51.034;13.642;2023-04-24T02:30:40;4.00;;;3.60;;
7247;SDS011;3665;51.034;13.642;2023-04-24T02:35:30;4.00;;;3.60;;
7247;SDS011;3665;51.034;13.642;2023-04-24T02:40:13;3.50;;;3.03;;
7247;SDS011;3665;51.034;13.642;2023-04-24T02:45:11;2.73;;;2.47;;
7247;SDS011;3665;51.034;13.642;2023-04-24T02:49:58;1.70;;;1.60;;
7247;SDS011;3665;51.034;13.642;2023-04-24T02:54:46;2.10;;;1.43;;
7247;SDS011;3665;51.034;13.642;2023-04-24T02:59:34;1.63;;;1.23;;
7247;SDS011;3665;51.034;13.642;2023-04-24T03:09:58;1.20;;;1.10;;
7247;SDS011;3665;51.034;13.642;2023-04-24T03:14:45;2.70;;;1.13;;
7247;SDS011;3665;51.034;13.642;2023-04-24T03:19:29;1.97;;;1.20;;
7247;SDS011;3665;51.034;13.642;2023-04-24T03:24:22;1.20;;;0.93;;
7247;SDS011;3665;51.034;13.642;2023-04-24T03:29:11;1.43;;;1.03;;
7247;SDS011;3665;51.034;13.642;2023-04-24T03:33:57;1.07;;;1.07;;
7247;SDS011;3665;51.034;13.642;2023-04-24T03:38:42;4.53;;;1.00;;
7247;SDS011;3665;51.034;13.642;2023-04-24T03:43:45;1.17;;;0.80;;
7247;SDS011;3665;51.034;13.642;2023-04-24T03:48:38;1.63;;;0.70;;
7247;SDS011;3665;51.034;13.642;2023-04-24T03:53:26;2.23;;;0.93;;
7247;SDS011;3665;51.034;13.642;2023-04-24T03:58:14;2.40;;;0.90;;
7247;SDS011;3665;51.034;13.642;2023-04-24T04:03:01;1.67;;;1.03;;
7247;SDS011;3665;51.034;13.642;2023-04-24T04:07:57;0.73;;;0.73;;
7247;SDS011;3665;51.034;13.642;2023-04-24T04:12:55;1.47;;;0.80;;
7247;SDS011;3665;51.034;13.642;2023-04-24T04:17:44;0.70;;;0.70;;
7247;SDS011;3665;51.034;13.642;2023-04-24T04:22:31;1.00;;;0.73;;
7247;SDS011;3665;51.034;13.642;2023-04-24T04:27:34;2.33;;;0.90;;
7247;SDS011;3665;51.034;13.642;2023-04-24T04:32:42;1.70;;;0.80;;
7247;SDS011;3665;51.034;13.642;2023-04-24T04:37:26;2.43;;;1.10;;
7247;SDS011;3665;51.034;13.642;2023-04-24T04:42:48;1.80;;;0.77;;
7247;SDS011;3665;51.034;13.642;2023-04-24T04:47:35;1.00;;;0.90;;
7247;SDS011;3665;51.034;13.642;2023-04-24T04:52:23;2.47;;;1.10;;
7247;SDS011;3665;51.034;13.642;2023-04-24T04:57:43;0.90;;;0.80;;
7247;SDS011;3665;51.034;13.642;2023-04-24T05:02:29;0.80;;;0.70;;
7247;SDS011;3665;51.034;13.642;2023-04-24T05:07:21;1.00;;;0.70;;
7247;SDS011;3665;51.034;13.642;2023-04-24T05:12:37;0.60;;;0.60;;
7247;SDS011;3665;51.034;13.642;2023-04-24T05:17:27;0.60;;;0.60;;
7247;SDS011;3665;51.034;13.642;2023-04-24T05:22:14;1.10;;;1.00;;
7247;SDS011;3665;51.034;13.642;2023-04-24T05:27:12;0.80;;;0.60;;
7247;SDS011;3665;51.034;13.642;2023-04-24T05:32:03;0.80;;;0.63;;
7247;SDS011;3665;51.034;13.642;2023-04-24T05:37:00;1.30;;;1.00;;
7247;SDS011;3665;51.034;13.642;2023-04-24T05:41:46;3.83;;;1.73;;
7247;SDS011;3665;51.034;13.642;2023-04-24T05:46:34;2.80;;;1.60;;
7247;SDS011;3665;51.034;13.642;2023-04-24T05:51:32;1.40;;;0.70;;
7247;SDS011;3665;51.034;13.642;2023-04-24T06:02:20;2.03;;;0.73;;
7247;SDS011;3665;51.034;13.642;2023-04-24T06:07:09;1.87;;;0.70;;
7247;SDS011;3665;51.034;13.642;2023-04-24T06:11:56;1.43;;;0.97;;
7247;SDS011;3665;51.034;13.642;2023-04-24T06:16:52;1.00;;;1.00;;
7247;SDS011;3665;51.034;13.642;2023-04-24T06:21:55;1.50;;;0.80;;
7247;SDS011;3665;51.034;13.642;2023-04-24T06:26:51;0.97;;;0.60;;
7247;SDS011;3665;51.034;13.642;2023-04-24T06:31:40;2.63;;;0.70;;
7247;SDS011;3665;51.034;13.642;2023-04-24T06:36:26;0.90;;;0.80;;
7247;SDS011;3665;51.034;13.642;2023-04-24T06:41:16;1.43;;;0.80;;
7247;SDS011;3665;51.034;13.642;2023-04-24T06:46:06;1.23;;;0.73;;
7247;SDS011;3665;51.034;13.642;2023-04-24T06:50:53;0.63;;;0.63;;
7247;SDS011;3665;51.034;13.642;2023-04-24T06:55:40;0.70;;;0.60;;
7247;SDS011;3665;51.034;13.642;2023-04-24T07:00:28;0.50;;;0.50;;
7247;SDS011;3665;51.034;13.642;2023-04-24T07:05:16;1.40;;;0.60;;
7247;SDS011;3665;51.034;13.642;2023-04-24T07:10:05;1.63;;;0.47;;
7247;SDS011;3665;51.034;13.642;2023-04-24T07:14:50;0.63;;;0.50;;
7247;SDS011;3665;51.034;13.642;2023-04-24T07:19:39;0.77;;;0.60;;
7247;SDS011;3665;51.034;13.642;2023-04-24T07:24:26;0.60;;;0.60;;
7247;SDS011;3665;51.034;13.642;2023-04-24T07:29:16;1.27;;;0.80;;
7247;SDS011;3665;51.034;13.642;2023-04-24T07:34:03;0.40;;;0.40;;
7247;SDS011;3665;51.034;13.642;2023-04-24T07:38:51;2.80;;;0.80;;
7247;SDS011;3665;51.034;13.642;2023-04-24T07:43:38;1.43;;;0.50;;
7247;SDS011;3665;51.034;13.642;2023-04-24T07:54:06;1.57;;;0.57;;
7247;SDS011;3665;51.034;13.642;2023-04-24T07:59:00;1.20;;;0.50;;
7247;SDS011;3665;51.034;13.642;2023-04-24T08:03:56;1.90;;;0.63;;
7247;SDS011;3665;51.034;13.642;2023-04-24T08:08:43;2.20;;;0.67;;
7247;SDS011;3665;51.034;13.642;2023-04-24T08:13:32;1.00;;;0.53;;
7247;SDS011;3665;51.034;13.642;2023-04-24T08:18:18;1.47;;;0.50;;
7247;SDS011;3665;51.034;13.642;2023-04-24T08:23:06;0.63;;;0.40;;
7247;SDS011;3665;51.034;13.642;2023-04-24T08:27:54;0.50;;;0.50;;
7247;SDS011;3665;51.034;13.642;2023-04-24T08:32:47;0.87;;;0.70;;
7247;SDS011;3665;51.034;13.642;2023-04-24T08:37:49;1.40;;;0.63;;
7247;SDS011;3665;51.034;13.642;2023-04-24T08:42:35;1.07;;;0.57;;
7247;SDS011;3665;51.034;13.642;2023-04-24T08:47:24;1.57;;;0.50;;
7247;SDS011;3665;51.034;13.642;2023-04-24T08:52:12;0.53;;;0.47;;
7247;SDS011;3665;51.034;13.642;2023-04-24T08:56:59;1.07;;;0.40;;
7247;SDS011;3665;51.034;13.642;2023-04-24T09:01:48;1.03;;;0.50;;
7247;SDS011;3665;51.034;13.642;2023-04-24T09:06:34;0.97;;;0.70;;
7247;SDS011;3665;51.034;13.642;2023-04-24T09:11:27;0.70;;;0.50;;
7247;SDS011;3665;51.034;13.642;2023-04-24T09:16:30;1.67;;;0.70;;
7247;SDS011;3665;51.034;13.642;2023-04-24T09:21:31;1.43;;;0.70;;
7247;SDS011;3665;51.034;13.642;2023-04-24T09:31:22;1.00;;;0.50;;
7247;SDS011;3665;51.034;13.642;2023-04-24T09:36:12;0.97;;;0.60;;
7247;SDS011;3665;51.034;13.642;2023-04-24T09:41:00;1.83;;;0.70;;
7247;SDS011;3665;51.034;13.642;2023-04-24T09:50:51;0.60;;;0.40;;
7247;SDS011;3665;51.034;13.642;2023-04-24T09:55:39;0.40;;;0.40;;
7247;SDS011;3665;51.034;13.642;2023-04-24T10:00:31;0.43;;;0.43;;
7247;SDS011;3665;51.034;13.642;2023-04-24T10:05:17;0.90;;;0.57;;
7247;SDS011;3665;51.034;13.642;2023-04-24T10:10:04;0.40;;;0.40;;
7247;SDS011;3665;51.034;13.642;2023-04-24T10:14:51;1.70;;;0.53;;
7247;SDS011;3665;51.034;13.642;2023-04-24T10:19:41;0.93;;;0.50;;
7247;SDS011;3665;51.034;13.642;2023-04-24T10:24:45;1.07;;;0.47;;
7247;SDS011;3665;51.034;13.642;2023-04-24T10:29:31;0.90;;;0.50;;
7247;SDS011;3665;51.034;13.642;2023-04-24T10:34:34;1.00;;;0.40;;
7247;SDS011;3665;51.034;13.642;2023-04-24T10:39:22;2.43;;;0.63;;
7247;SDS011;3665;51.034;13.642;2023-04-24T10:44:14;0.63;;;0.60;;
7247;SDS011;3665;51.034;13.642;2023-04-24T10:48:58;3.50;;;0.70;;
7247;SDS011;3665;51.034;13.642;2023-04-24T10:53:46;0.60;;;0.60;;
7247;SDS011;3665;51.034;13.642;2023-04-24T10:58:41;2.67;;;0.93;;
7247;SDS011;3665;51.034;13.642;2023-04-24T11:03:41;2.93;;;1.00;;
7247;SDS011;3665;51.034;13.642;2023-04-24T11:09:01;0.80;;;0.60;;
7247;SDS011;3665;51.034;13.642;2023-04-24T11:14:07;1.00;;;0.60;;
7247;SDS011;3665;51.034;13.642;2023-04-24T11:18:57;0.73;;;0.63;;
7247;SDS011;3665;51.034;13.642;2023-04-24T11:23:54;0.60;;;0.50;;
7247;SDS011;3665;51.034;13.642;2023-04-24T11:28:45;2.90;;;0.80;;
7247;SDS011;3665;51.034;13.642;2023-04-24T11:33:46;1.70;;;0.80;;
7247;SDS011;3665;51.034;13.642;2023-04-24T11:38:38;0.80;;;0.50;;
7247;SDS011;3665;51.034;13.642;2023-04-24T11:43:23;1.07;;;0.30;;
7247;SDS011;3665;51.034;13.642;2023-04-24T11:48:10;3.17;;;0.90;;
7247;SDS011;3665;51.034;13.642;2023-04-24T11:53:04;1.23;;;0.53;;
7247;SDS011;3665;51.034;13.642;2023-04-24T11:57:49;1.90;;;0.67;;
7247;SDS011;3665;51.034;13.642;2023-04-24T12:02:52;0.80;;;0.60;;
7247;SDS011;3665;51.034;13.642;2023-04-24T12:08:03;0.70;;;0.50;;
7247;SDS011;3665;51.034;13.642;2023-04-24T12:13:01;1.47;;;0.50;;
7247;SDS011;3665;51.034;13.642;2023-04-24T12:17:50;0.90;;;0.57;;
7247;SDS011;3665;51.034;13.642;2023-04-24T12:22:44;0.70;;;0.70;;
7247;SDS011;3665;51.034;13.642;2023-04-24T12:27:57;0.63;;;0.60;;
7247;SDS011;3665;51.034;13.642;2023-04-24T12:33:50;0.80;;;0.67;;
7247;SDS011;3665;51.034;13.642;2023-04-24T12:38:35;1.40;;;0.80;;
7247;SDS011;3665;51.034;13.642;2023-04-24T12:43:23;1.10;;;0.80;;
7247;SDS011;3665;51.034;13.642;2023-04-24T12:53:18;1.53;;;0.80;;
7247;SDS011;3665;51.034;13.642;2023-04-24T12:58:04;0.93;;;0.93;;
7247;SDS011;3665;51.034;13.642;2023-04-24T13:02:52;1.73;;;0.73;;
7247;SDS011;3665;51.034;13.642;2023-04-24T13:07:37;0.70;;;0.70;;
7247;SDS011;3665;51.034;13.642;2023-04-24T13:12:28;3.53;;;0.90;;
7247;SDS011;3665;51.034;13.642;2023-04-24T13:17:31;2.43;;;0.93;;
7247;SDS011;3665;51.034;13.642;2023-04-24T13:22:18;1.57;;;1.17;;
7247;SDS011;3665;51.034;13.642;2023-04-24T13:27:10;3.10;;;1.00;;
7247;SDS011;3665;51.034;13.642;2023-04-24T13:31:55;0.97;;;0.70;;
7247;SDS011;3665;51.034;13.642;2023-04-24T13:36:52;0.80;;;0.80;;
7247;SDS011;3665;51.034;13.642;2023-04-24T13:41:47;1.10;;;0.70;;
7247;SDS011;3665;51.034;13.642;2023-04-24T13:46:37;0.97;;;0.90;;
7247;SDS011;3665;51.034;13.642;2023-04-24T13:51:30;1.23;;;1.00;;
7247;SDS011;3665;51.034;13.642;2023-04-24T13:56:31;1.27;;;0.93;;
7247;SDS011;3665;51.034;13.642;2023-04-24T14:12:29;1.57;;;0.77;;
7247;SDS011;3665;51.034;13.642;2023-04-24T14:17:15;0.97;;;0.90;;
7247;SDS011;3665;51.034;13.642;2023-04-24T14:22:04;1.83;;;1.13;;
7247;SDS011;3665;51.034;13.642;2023-04-24T14:26:50;1.37;;;0.90;;
7247;SDS011;3665;51.034;13.642;2023-04-24T14:36:47;1.43;;;1.07;;
7247;SDS011;3665;51.034;13.642;2023-04-24T14:41:47;2.97;;;1.20;;
7247;SDS011;3665;51.034;13.642;2023-04-24T14:46:35;1.70;;;0.90;;
7247;SDS011;3665;51.034;13.642;2023-04-24T14:51:25;1.00;;;1.00;;
7247;SDS011;3665;51.034;13.642;2023-04-24T14:56:12;1.70;;;1.20;;
7247;SDS011;3665;51.034;13.642;2023-04-24T15:00:59;2.63;;;1.10;;
7247;SDS011;3665;51.034;13.642;2023-04-24T15:05:48;0.90;;;0.90;;
7247;SDS011;3665;51.034;13.642;2023-04-24T15:10:36;1.33;;;0.87;;
7247;SDS011;3665;51.034;13.642;2023-04-24T15:20:28;0.70;;;0.70;;
7247;SDS011;3665;51.034;13.642;2023-04-24T15:25:14;1.43;;;0.90;;
7247;SDS011;3665;51.034;13.642;2023-04-24T15:35:08;1.23;;;1.13;;
7247;SDS011;3665;51.034;13.642;2023-04-24T15:39:56;1.00;;;0.90;;
7247;SDS011;3665;51.034;13.642;2023-04-24T15:50:55;1.17;;;1.07;;
7247;SDS011;3665;51.034;13.642;2023-04-24T15:55:55;2.03;;;0.97;;
7247;SDS011;3665;51.034;13.642;2023-04-24T16:00:43;2.13;;;1.20;;
7247;SDS011;3665;51.034;13.642;2023-04-24T16:05:33;1.00;;;1.00;;
7247;SDS011;3665;51.034;13.642;2023-04-24T16:10:27;2.60;;;1.40;;
7247;SDS011;3665;51.034;13.642;2023-04-24T16:20:34;1.63;;;0.80;;
7247;SDS011;3665;51.034;13.642;2023-04-24T16:25:35;0.87;;;0.70;;
7247;SDS011;3665;51.034;13.642;2023-04-24T16:30:36;0.70;;;0.70;;
7247;SDS011;3665;51.034;13.642;2023-04-24T16:35:40;1.30;;;0.90;;
7247;SDS011;3665;51.034;13.642;2023-04-24T16:45:47;0.90;;;0.90;;
7247;SDS011;3665;51.034;13.642;2023-04-24T16:50:32;0.80;;;0.63;;
7247;SDS011;3665;51.034;13.642;2023-04-24T16:55:17;0.70;;;0.70;;
7247;SDS011;3665;51.034;13.642;2023-04-24T17:00:15;0.80;;;0.80;;
7247;SDS011;3665;51.034;13.642;2023-04-24T17:05:00;0.83;;;0.70;;
7247;SDS011;3665;51.034;13.642;2023-04-24T17:09:48;1.30;;;1.00;;
7247;SDS011;3665;51.034;13.642;2023-04-24T17:14:35;1.40;;;0.93;;
7247;SDS011;3665;51.034;13.642;2023-04-24T17:19:32;1.90;;;1.10;;
7247;SDS011;3665;51.034;13.642;2023-04-24T17:24:28;1.43;;;0.83;;
7247;SDS011;3665;51.034;13.642;2023-04-24T17:29:18;1.03;;;0.93;;
7247;SDS011;3665;51.034;13.642;2023-04-24T17:34:11;0.50;;;0.50;;
7247;SDS011;3665;51.034;13.642;2023-04-24T17:39:09;0.70;;;0.70;;
7247;SDS011;3665;51.034;13.642;2023-04-24T17:43:57;0.63;;;0.63;;
7247;SDS011;3665;51.034;13.642;2023-04-24T17:48:43;0.70;;;0.60;;
7247;SDS011;3665;51.034;13.642;2023-04-24T17:53:33;0.40;;;0.40;;
7247;SDS011;3665;51.034;13.642;2023-04-24T17:58:22;3.10;;;0.50;;
7247;SDS011;3665;51.034;13.642;2023-04-24T18:03:55;0.40;;;0.40;;
7247;SDS011;3665;51.034;13.642;2023-04-24T18:08:43;0.60;;;0.60;;
7247;SDS011;3665;51.034;13.642;2023-04-24T18:13:48;0.93;;;0.70;;
7247;SDS011;3665;51.034;13.642;2023-04-24T18:18:36;1.43;;;0.60;;
7247;SDS011;3665;51.034;13.642;2023-04-24T18:23:23;0.43;;;0.40;;
7247;SDS011;3665;51.034;13.642;2023-04-24T18:28:35;0.63;;;0.47;;
7247;SDS011;3665;51.034;13.642;2023-04-24T18:33:40;0.63;;;0.63;;
7247;SDS011;3665;51.034;13.642;2023-04-24T18:38:53;1.77;;;0.50;;
7247;SDS011;3665;51.034;13.642;2023-04-24T18:43:39;2.23;;;0.50;;
7247;SDS011;3665;51.034;13.642;2023-04-24T18:54:38;0.90;;;0.77;;
7247;SDS011;3665;51.034;13.642;2023-04-24T18:59:27;1.30;;;0.53;;
7247;SDS011;3665;51.034;13.642;2023-04-24T19:04:11;0.70;;;0.70;;
7247;SDS011;3665;51.034;13.642;2023-04-24T19:09:01;0.67;;;0.63;;
7247;SDS011;3665;51.034;13.642;2023-04-24T19:14:04;0.57;;;0.53;;
7247;SDS011;3665;51.034;13.642;2023-04-24T19:19:06;0.70;;;0.70;;
7247;SDS011;3665;51.034;13.642;2023-04-24T19:24:46;0.80;;;0.80;;
7247;SDS011;3665;51.034;13.642;2023-04-24T19:29:32;0.83;;;0.70;;
7247;SDS011;3665;51.034;13.642;2023-04-24T19:34:36;1.63;;;1.00;;
7247;SDS011;3665;51.034;13.642;2023-04-24T19:39:25;1.13;;;1.03;;
7247;SDS011;3665;51.034;13.642;2023-04-24T19:44:13;1.53;;;1.20;;
7247;SDS011;3665;51.034;13.642;2023-04-24T19:49:48;1.13;;;1.03;;
7247;SDS011;3665;51.034;13.642;2023-04-24T19:54:35;1.20;;;1.10;;
7247;SDS011;3665;51.034;13.642;2023-04-24T19:59:24;1.30;;;1.20;;
7247;SDS011;3665;51.034;13.642;2023-04-24T20:04:12;1.33;;;1.23;;
7247;SDS011;3665;51.034;13.642;2023-04-24T20:08:59;1.30;;;1.20;;
7247;SDS011;3665;51.034;13.642;2023-04-24T20:13:46;1.23;;;1.10;;
7247;SDS011;3665;51.034;13.642;2023-04-24T20:23:40;1.50;;;1.40;;
7247;SDS011;3665;51.034;13.642;2023-04-24T20:28:27;2.87;;;1.57;;
7247;SDS011;3665;51.034;13.642;2023-04-24T20:33:16;1.60;;;1.50;;
7247;SDS011;3665;51.034;13.642;2023-04-24T20:43:06;1.73;;;1.63;;
7247;SDS011;3665;51.034;13.642;2023-04-24T20:47:55;1.87;;;1.70;;
7247;SDS011;3665;51.034;13.642;2023-04-24T20:52:45;1.90;;;1.73;;
7247;SDS011;3665;51.034;13.642;2023-04-24T20:57:36;1.90;;;1.80;;
7247;SDS011;3665;51.034;13.642;2023-04-24T21:02:20;2.30;;;1.83;;
7247;SDS011;3665;51.034;13.642;2023-04-24T21:07:07;1.97;;;1.70;;
7247;SDS011;3665;51.034;13.642;2023-04-24T21:11:56;2.50;;;1.80;;
7247;SDS011;3665;51.034;13.642;2023-04-24T21:16:44;2.60;;;1.80;;
7247;SDS011;3665;51.034;13.642;2023-04-24T21:21:37;2.40;;;2.00;;
7247;SDS011;3665;51.034;13.642;2023-04-24T21:26:35;2.80;;;2.07;;
7247;SDS011;3665;51.034;13.642;2023-04-24T21:31:22;2.40;;;2.00;;
7247;SDS011;3665;51.034;13.642;2023-04-24T21:46:12;4.50;;;2.40;;
7247;SDS011;3665;51.034;13.642;2023-04-24T21:51:06;3.20;;;2.30;;
7247;SDS011;3665;51.034;13.642;2023-04-24T22:01:01;3.27;;;2.73;;
7247;SDS011;3665;51.034;13.642;2023-04-24T22:05:48;2.40;;;2.20;;
7247;SDS011;3665;51.034;13.642;2023-04-24T22:10:35;2.30;;;2.10;;
7247;SDS011;3665;51.034;13.642;2023-04-24T22:15:38;2.53;;;2.20;;
7247;SDS011;3665;51.034;13.642;2023-04-24T22:20:30;3.30;;;2.00;;
7247;SDS011;3665;51.034;13.642;2023-04-24T22:25:16;3.13;;;2.20;;
7247;SDS011;3665;51.034;13.642;2023-04-24T22:30:04;3.53;;;2.40;;
7247;SDS011;3665;51.034;13.642;2023-04-24T22:34:50;3.17;;;2.87;;
7247;SDS011;3665;51.034;13.642;2023-04-24T22:39:41;3.17;;;2.73;;
7247;SDS011;3665;51.034;13.642;2023-04-24T22:44:26;2.57;;;2.40;;
7247;SDS011;3665;51.034;13.642;2023-04-24T22:49:15;3.60;;;3.03;;
7247;SDS011;3665;51.034;13.642;2023-04-24T22:54:03;4.43;;;2.80;;
7247;SDS011;3665;51.034;13.642;2023-04-24T22:58:52;3.47;;;3.00;;
7247;SDS011;3665;51.034;13.642;2023-04-24T23:03:40;3.53;;;3.07;;
7247;SDS011;3665;51.034;13.642;2023-04-24T23:08:26;4.07;;;3.00;;
7247;SDS011;3665;51.034;13.642;2023-04-24T23:13:17;3.83;;;2.90;;
7247;SDS011;3665;51.034;13.642;2023-04-24T23:23:06;4.20;;;3.80;;
7247;SDS011;3665;51.034;13.642;2023-04-24T23:27:56;3.70;;;3.40;;
7247;SDS011;3665;51.034;13.642;2023-04-24T23:32:43;4.23;;;3.80;;
7247;SDS011;3665;51.034;13.642;2023-04-24T23:37:33;3.77;;;3.30;;
7247;SDS011;3665;51.034;13.642;2023-04-24T23:42:19;4.33;;;3.30;;
7247;SDS011;3665;51.034;13.642;2023-04-24T23:47:06;3.87;;;2.93;;
7247;SDS011;3665;51.034;13.642;2023-04-24T23:52:26;3.83;;;3.33;;
7247;SDS011;3665;51.034;13.642;2023-04-24T23:57:17;4.17;;;3.03;;
